Time;durP1;ratioP1;P1;durP2;ratioP2;P2;SDS_P1;SDS_P2;PMS_P1;PMS_P2;Temp;Humidity;BMP_temperature;BMP_pressure;BME280_temperature;BME280_humidity;BME280_pressure;Samples;Min_cycle;Max_cycle;Signal;HPM_P1;HPM_P2
2021/10/08 00:01:20;;;;;;;0.30;0.20;;;10.40;99.90;;;;;;4958331;28;20427;-67
2021/10/08 00:03:47;;;;;;;0.30;0.20;;;10.40;99.90;;;;;;4959003;28;20191;-67
2021/10/08 00:06:13;;;;;;;0.30;0.20;;;10.40;99.90;;;;;;4958875;28;20180;-64
2021/10/08 00:08:40;;;;;;;0.30;0.20;;;10.40;99.90;;;;;;4956911;28;20517;-64
2021/10/08 00:11:09;;;;;;;0.20;0.10;;;10.30;99.90;;;;;;4958443;28;20593;-67
2021/10/08 00:13:34;;;;;;;0.30;0.20;;;10.30;99.90;;;;;;4957160;28;20195;-66
2021/10/08 00:16:01;;;;;;;0.30;0.20;;;10.40;99.90;;;;;;4958116;28;20715;-65
2021/10/08 00:18:27;;;;;;;0.30;0.20;;;10.40;99.90;;;;;;4957834;28;20351;-66
2021/10/08 00:20:53;;;;;;;0.30;0.10;;;10.30;99.90;;;;;;4958504;28;20270;-68
2021/10/08 00:23:18;;;;;;;0.30;0.20;;;10.30;99.90;;;;;;4958819;28;20211;-69
2021/10/08 00:25:44;;;;;;;0.30;0.20;;;10.30;99.90;;;;;;4958028;28;20753;-69
2021/10/08 00:28:09;;;;;;;0.23;0.20;;;10.30;99.90;;;;;;4957470;28;20628;-69
2021/10/08 00:30:35;;;;;;;0.30;0.20;;;10.30;99.90;;;;;;4957800;28;20184;-66
2021/10/08 00:33:02;;;;;;;0.30;0.20;;;10.30;99.90;;;;;;4957700;28;20634;-66
2021/10/08 00:35:27;;;;;;;0.30;0.20;;;10.20;99.90;;;;;;4957626;28;20239;-66
2021/10/08 00:37:54;;;;;;;0.30;0.20;;;10.20;99.90;;;;;;4956465;28;20196;-66
2021/10/08 00:40:19;;;;;;;0.30;0.20;;;10.20;99.90;;;;;;4957487;28;20282;-68
2021/10/08 00:42:47;;;;;;;0.30;0.20;;;10.10;99.90;;;;;;4957651;28;20614;-67
2021/10/08 00:45:13;;;;;;;0.30;0.20;;;10.10;99.90;;;;;;4958336;28;20183;-66
2021/10/08 00:47:39;;;;;;;0.30;0.20;;;10.20;99.90;;;;;;4957942;28;20221;-66
2021/10/08 00:50:07;;;;;;;0.30;0.20;;;10.10;99.90;;;;;;4957767;28;20216;-66
2021/10/08 00:52:32;;;;;;;0.30;0.20;;;10.10;99.90;;;;;;4958066;28;20184;-66
2021/10/08 00:54:58;;;;;;;0.30;0.20;;;10.00;99.90;;;;;;4958356;28;20575;-66
2021/10/08 00:57:24;;;;;;;0.30;0.20;;;10.10;99.90;;;;;;4958985;28;20523;-66
2021/10/08 00:59:50;;;;;;;0.20;0.20;;;9.90;99.90;;;;;;4957389;28;20290;-66
2021/10/08 01:02:16;;;;;;;0.30;0.20;;;10.00;99.90;;;;;;4957700;28;20636;-66
2021/10/08 01:04:42;;;;;;;0.20;0.20;;;10.10;99.90;;;;;;4957714;28;20512;-66
2021/10/08 01:07:08;;;;;;;0.30;0.20;;;10.10;99.90;;;;;;4957560;28;20219;-66
2021/10/08 01:09:33;;;;;;;0.20;0.20;;;10.00;99.90;;;;;;4957542;28;20250;-66
2021/10/08 01:11:59;;;;;;;0.30;0.20;;;10.00;99.90;;;;;;4957623;28;20275;-66
2021/10/08 01:14:24;;;;;;;0.30;0.20;;;10.00;99.90;;;;;;4957752;28;20188;-65
2021/10/08 01:16:50;;;;;;;0.20;0.20;;;10.00;99.90;;;;;;4957485;28;20633;-66
2021/10/08 01:19:16;;;;;;;0.30;0.20;;;10.00;99.90;;;;;;4957132;28;20231;-66
2021/10/08 01:21:42;;;;;;;0.30;0.20;;;10.00;99.90;;;;;;4957516;28;20203;-66
2021/10/08 01:24:08;;;;;;;0.30;0.20;;;10.00;99.90;;;;;;4957400;28;20678;-66
2021/10/08 01:26:34;;;;;;;0.20;0.20;;;9.90;99.90;;;;;;4956656;28;20207;-69
2021/10/08 01:28:59;;;;;;;0.20;0.20;;;9.80;99.90;;;;;;4955155;28;20249;-69
2021/10/08 01:31:25;;;;;;;0.20;0.10;;;9.80;99.90;;;;;;4957297;28;20517;-68
2021/10/08 01:33:51;;;;;;;0.30;0.20;;;9.80;99.90;;;;;;4956570;28;20628;-66
2021/10/08 01:36:17;;;;;;;0.30;0.20;;;9.90;99.90;;;;;;4956473;28;20274;-68
2021/10/08 01:38:42;;;;;;;0.30;0.20;;;9.90;99.90;;;;;;4955498;28;20222;-68
2021/10/08 01:41:08;;;;;;;0.30;0.20;;;9.90;99.90;;;;;;4955818;28;20887;-69
2021/10/08 01:43:33;;;;;;;0.20;0.20;;;9.90;99.90;;;;;;4955770;28;20183;-68
2021/10/08 01:45:59;;;;;;;0.30;0.20;;;10.00;99.90;;;;;;4955775;28;20180;-66
2021/10/08 01:48:25;;;;;;;0.20;0.20;;;9.90;99.90;;;;;;4955618;28;20176;-65
2021/10/08 01:50:50;;;;;;;0.20;0.20;;;9.90;99.90;;;;;;4955842;28;20227;-66
2021/10/08 01:53:16;;;;;;;0.20;0.13;;;9.90;99.90;;;;;;4955070;28;20195;-66
2021/10/08 01:55:41;;;;;;;0.30;0.20;;;9.90;99.90;;;;;;4957950;28;20610;-67
2021/10/08 01:58:07;;;;;;;0.30;0.20;;;9.90;99.90;;;;;;4958657;28;20180;-66
2021/10/08 02:00:33;;;;;;;0.30;0.20;;;9.90;99.90;;;;;;4959598;28;20717;-66
2021/10/08 02:02:59;;;;;;;0.20;0.20;;;9.90;99.90;;;;;;4958796;28;20229;-67
2021/10/08 02:05:24;;;;;;;0.27;0.20;;;9.80;99.90;;;;;;4959681;28;20179;-67
2021/10/08 02:07:50;;;;;;;0.30;0.20;;;9.90;99.90;;;;;;4958897;28;20191;-67
2021/10/08 02:10:16;;;;;;;0.30;0.20;;;9.80;99.90;;;;;;4958399;28;20180;-66
2021/10/08 02:12:41;;;;;;;0.20;0.20;;;9.90;99.90;;;;;;4959500;28;20844;-67
2021/10/08 02:15:07;;;;;;;0.30;0.20;;;9.90;99.90;;;;;;4959294;28;20343;-66
2021/10/08 02:17:33;;;;;;;0.30;0.20;;;9.90;99.90;;;;;;4955806;28;20199;-67
2021/10/08 02:19:58;;;;;;;0.20;0.20;;;9.70;99.90;;;;;;4954936;28;20218;-67
2021/10/08 02:22:24;;;;;;;0.20;0.20;;;9.80;99.90;;;;;;4955562;28;20176;-67
2021/10/08 02:24:50;;;;;;;0.30;0.20;;;9.70;99.90;;;;;;4956198;28;20180;-67
2021/10/08 02:27:15;;;;;;;0.20;0.20;;;9.70;99.90;;;;;;4914241;28;1198982;-67
2021/10/08 02:29:41;;;;;;;0.20;0.20;;;9.80;99.90;;;;;;4955797;28;20266;-67
2021/10/08 02:32:06;;;;;;;0.23;0.20;;;9.80;99.90;;;;;;4956144;28;20331;-67
2021/10/08 02:34:32;;;;;;;0.20;0.20;;;9.80;99.90;;;;;;4956101;28;20563;-67
2021/10/08 02:36:58;;;;;;;0.30;0.20;;;9.80;99.90;;;;;;4955996;28;20192;-66
2021/10/08 02:39:23;;;;;;;0.20;0.20;;;9.70;99.90;;;;;;4955369;28;20214;-66
2021/10/08 02:41:49;;;;;;;0.20;0.20;;;9.80;99.90;;;;;;4959072;28;21028;-67
2021/10/08 02:44:15;;;;;;;0.20;0.20;;;9.80;99.90;;;;;;4965060;28;20217;-67
2021/10/08 02:46:41;;;;;;;0.30;0.20;;;9.70;99.90;;;;;;4957949;28;20530;-67
2021/10/08 02:49:06;;;;;;;0.20;0.20;;;9.70;99.90;;;;;;4957008;28;20687;-67
2021/10/08 02:51:33;;;;;;;0.20;0.20;;;9.60;99.90;;;;;;4958097;28;20195;-67
2021/10/08 02:54:00;;;;;;;0.20;0.20;;;9.60;99.90;;;;;;4956800;28;20620;-67
2021/10/08 02:56:26;;;;;;;0.20;0.20;;;9.70;99.90;;;;;;4955528;28;20187;-67
2021/10/08 02:58:52;;;;;;;0.20;0.20;;;9.60;99.90;;;;;;4955153;28;20218;-67
2021/10/08 03:01:17;;;;;;;0.30;0.20;;;9.60;99.90;;;;;;4955397;28;20776;-67
2021/10/08 03:03:43;;;;;;;0.20;0.20;;;9.70;99.90;;;;;;4955480;28;20612;-67
2021/10/08 03:06:08;;;;;;;0.30;0.20;;;9.60;99.90;;;;;;4955359;28;20494;-67
2021/10/08 03:08:34;;;;;;;0.20;0.20;;;9.60;99.90;;;;;;4955199;28;20180;-66
2021/10/08 03:10:59;;;;;;;0.20;0.20;;;9.60;99.90;;;;;;4955172;28;20179;-65
2021/10/08 03:13:25;;;;;;;0.30;0.30;;;9.60;99.90;;;;;;4955280;28;20179;-66
2021/10/08 03:15:51;;;;;;;0.20;0.20;;;9.50;99.90;;;;;;4955341;28;20188;-66
2021/10/08 03:18:16;;;;;;;0.20;0.20;;;9.50;99.90;;;;;;4954098;28;20188;-66
2021/10/08 03:20:42;;;;;;;0.20;0.20;;;9.60;99.90;;;;;;4955647;28;20210;-69
2021/10/08 03:23:08;;;;;;;0.20;0.20;;;9.50;99.90;;;;;;4955224;28;20234;-69
2021/10/08 03:25:33;;;;;;;0.20;0.20;;;9.50;99.90;;;;;;4955085;28;20186;-70
2021/10/08 03:27:59;;;;;;;0.20;0.10;;;9.40;99.90;;;;;;4953960;29;20200;-69
2021/10/08 03:30:24;;;;;;;0.20;0.20;;;9.40;99.90;;;;;;4954224;28;20192;-70
2021/10/08 03:32:50;;;;;;;0.20;0.10;;;9.40;99.90;;;;;;4955161;28;20606;-69
2021/10/08 03:35:15;;;;;;;0.23;0.20;;;9.40;99.90;;;;;;4955148;28;20191;-70
2021/10/08 03:40:23;;;;;;;0.20;0.20;;;9.30;99.90;;;;;;4955081;28;20208;-70
2021/10/08 03:42:48;;;;;;;0.20;0.20;;;9.40;99.90;;;;;;4955128;28;20179;-69
2021/10/08 03:45:15;;;;;;;0.30;0.20;;;9.40;99.90;;;;;;4954993;28;20707;-69
2021/10/08 03:47:58;;;;;;;0.20;0.20;;;9.20;99.90;;;;;;4955051;28;20208;-69
2021/10/08 03:50:24;;;;;;;0.20;0.20;;;9.30;99.90;;;;;;4955821;28;20588;-69
2021/10/08 03:52:50;;;;;;;0.20;0.20;;;9.30;99.90;;;;;;4957808;28;20188;-69
2021/10/08 03:55:16;;;;;;;0.20;0.20;;;9.20;99.90;;;;;;4958704;28;20207;-70
2021/10/08 03:57:42;;;;;;;0.20;0.20;;;9.30;99.90;;;;;;4958382;28;20528;-70
2021/10/08 04:00:08;;;;;;;0.20;0.20;;;9.30;99.90;;;;;;4957832;29;20233;-70
2021/10/08 04:02:34;;;;;;;0.20;0.10;;;9.30;99.90;;;;;;4957104;28;20239;-69
2021/10/08 04:04:59;;;;;;;0.30;0.20;;;9.20;99.90;;;;;;4958408;28;20635;-67
2021/10/08 04:07:25;;;;;;;0.20;0.20;;;9.20;99.90;;;;;;4958030;28;20545;-67
2021/10/08 04:09:50;;;;;;;0.20;0.20;;;9.30;99.90;;;;;;4958129;28;20186;-65
2021/10/08 04:12:16;;;;;;;0.20;0.17;;;9.30;99.90;;;;;;4958005;28;20182;-67
2021/10/08 04:14:41;;;;;;;0.20;0.20;;;9.20;99.90;;;;;;4958197;28;20179;-67
2021/10/08 04:17:07;;;;;;;0.20;0.17;;;9.20;99.90;;;;;;4957881;28;20192;-67
2021/10/08 04:19:32;;;;;;;0.20;0.20;;;9.20;99.90;;;;;;4957644;28;20217;-67
2021/10/08 04:21:58;;;;;;;0.20;0.20;;;9.20;99.90;;;;;;4957774;28;20180;-65
2021/10/08 04:24:23;;;;;;;0.30;0.30;;;9.10;99.90;;;;;;4956897;28;20180;-67
2021/10/08 04:26:49;;;;;;;0.20;0.20;;;9.20;99.90;;;;;;4956889;28;20278;-67
2021/10/08 04:29:14;;;;;;;0.20;0.10;;;9.20;99.90;;;;;;4956615;29;20234;-67
2021/10/08 04:31:40;;;;;;;0.20;0.20;;;9.20;99.90;;;;;;4957609;28;20214;-65
2021/10/08 04:34:05;;;;;;;0.20;0.20;;;9.20;99.90;;;;;;4957663;28;20617;-65
2021/10/08 04:36:31;;;;;;;0.20;0.17;;;9.20;99.90;;;;;;4957496;28;20664;-65
2021/10/08 04:38:57;;;;;;;0.20;0.20;;;9.30;99.90;;;;;;4957240;28;20266;-65
2021/10/08 04:41:22;;;;;;;0.20;0.20;;;9.20;99.90;;;;;;4957514;28;20211;-65
2021/10/08 04:43:48;;;;;;;0.20;0.20;;;9.30;99.90;;;;;;4957365;28;20265;-66
2021/10/08 04:46:14;;;;;;;0.20;0.20;;;9.20;99.90;;;;;;4957382;28;20182;-65
2021/10/08 04:48:39;;;;;;;0.20;0.20;;;9.20;99.90;;;;;;4957213;28;20261;-65
2021/10/08 04:51:05;;;;;;;0.20;0.10;;;9.30;99.90;;;;;;4957245;28;20173;-65
2021/10/08 04:53:30;;;;;;;0.20;0.20;;;9.20;99.90;;;;;;4957165;28;20571;-66
2021/10/08 04:55:56;;;;;;;0.20;0.20;;;9.10;99.90;;;;;;4957101;28;20177;-65
2021/10/08 04:58:21;;;;;;;0.20;0.17;;;9.00;99.90;;;;;;4956902;28;20184;-65
2021/10/08 05:00:48;;;;;;;0.20;0.20;;;9.00;99.90;;;;;;4956509;28;20234;-65
2021/10/08 05:03:16;;;;;;;0.20;0.20;;;8.90;99.90;;;;;;4956314;28;20523;-65
2021/10/08 05:05:52;;;;;;;0.20;0.20;;;8.90;99.90;;;;;;4957021;28;20515;-66
2021/10/08 05:08:19;;;;;;;0.20;0.20;;;8.90;99.90;;;;;;4956664;28;20194;-67
2021/10/08 05:10:45;;;;;;;0.20;0.20;;;8.90;99.90;;;;;;4956919;28;20204;-67
2021/10/08 05:13:12;;;;;;;0.40;0.40;;;8.90;99.90;;;;;;4957154;28;20245;-67
2021/10/08 05:15:38;;;;;;;0.30;0.20;;;8.90;99.90;;;;;;4957732;28;20443;-67
2021/10/08 05:18:04;;;;;;;0.20;0.20;;;8.80;99.90;;;;;;4957075;28;20508;-67
2021/10/08 05:20:29;;;;;;;0.20;0.20;;;8.70;99.90;;;;;;4956043;28;20223;-68
2021/10/08 05:22:55;;;;;;;0.20;0.20;;;8.70;99.90;;;;;;4956779;28;20239;-67
2021/10/08 05:25:21;;;;;;;0.20;0.20;;;8.70;99.90;;;;;;4956813;28;20524;-67
2021/10/08 05:27:46;;;;;;;0.20;0.20;;;8.80;99.90;;;;;;4956333;28;20671;-67
2021/10/08 05:30:13;;;;;;;1.33;1.23;;;8.80;99.90;;;;;;4956564;28;20476;-65
2021/10/08 05:32:39;;;;;;;0.20;0.20;;;8.80;99.90;;;;;;4956686;28;20193;-65
2021/10/08 05:35:07;;;;;;;0.20;0.20;;;8.80;99.90;;;;;;4956784;28;20192;-65
2021/10/08 05:37:33;;;;;;;0.20;0.20;;;8.80;99.90;;;;;;4956350;28;20188;-66
2021/10/08 05:39:58;;;;;;;0.20;0.20;;;8.70;99.90;;;;;;4956434;28;20537;-65
2021/10/08 05:42:24;;;;;;;0.20;0.20;;;8.60;99.90;;;;;;4956266;28;20511;-65
2021/10/08 05:44:49;;;;;;;0.20;0.20;;;8.70;99.90;;;;;;4956669;28;20220;-65
2021/10/08 05:47:15;;;;;;;0.70;0.70;;;8.70;99.90;;;;;;4955288;29;20696;-66
2021/10/08 05:49:41;;;;;;;0.20;0.20;;;8.70;99.90;;;;;;4956303;28;20192;-69
2021/10/08 05:52:06;;;;;;;0.20;0.20;;;8.80;99.90;;;;;;4955285;28;20195;-65
2021/10/08 05:54:32;;;;;;;0.20;0.20;;;8.80;99.90;;;;;;4956227;28;20677;-64
2021/10/08 05:56:58;;;;;;;0.20;0.20;;;8.80;99.90;;;;;;4956131;28;20560;-65
2021/10/08 05:59:23;;;;;;;0.20;0.20;;;8.80;99.90;;;;;;4955790;28;20308;-66
2021/10/08 06:01:49;;;;;;;0.20;0.20;;;8.80;99.90;;;;;;4956063;28;20240;-64
2021/10/08 06:04:14;;;;;;;0.30;0.20;;;9.00;99.90;;;;;;4955900;28;20216;-64
2021/10/08 06:06:41;;;;;;;0.20;0.20;;;9.10;99.90;;;;;;4956268;28;20176;-64
2021/10/08 06:09:07;;;;;;;0.30;0.30;;;9.20;99.90;;;;;;4955110;28;20226;-64
2021/10/08 06:11:32;;;;;;;0.20;0.20;;;9.10;99.90;;;;;;4955978;28;20212;-65
2021/10/08 06:13:58;;;;;;;0.20;0.20;;;9.00;99.90;;;;;;4955771;28;20176;-65
2021/10/08 06:16:24;;;;;;;0.20;0.20;;;9.00;99.90;;;;;;4955193;28;20439;-66
2021/10/08 06:18:49;;;;;;;0.20;0.20;;;9.00;99.90;;;;;;4954687;28;20622;-66
2021/10/08 06:21:15;;;;;;;0.20;0.20;;;9.00;99.90;;;;;;4955769;28;20203;-65
2021/10/08 06:23:41;;;;;;;0.20;0.20;;;9.00;99.90;;;;;;4955531;28;20514;-66
2021/10/08 06:26:06;;;;;;;0.20;0.20;;;9.10;99.90;;;;;;4955802;28;20176;-66
2021/10/08 06:28:32;;;;;;;0.20;0.20;;;9.00;99.90;;;;;;4955277;28;20698;-67
2021/10/08 06:30:58;;;;;;;0.20;0.20;;;9.10;99.90;;;;;;4955390;28;20246;-67
2021/10/08 06:33:23;;;;;;;0.20;0.20;;;9.10;99.90;;;;;;4955646;28;20191;-68
2021/10/08 06:35:51;;;;;;;0.20;0.20;;;9.20;99.90;;;;;;4956128;28;20616;-67
2021/10/08 06:38:17;;;;;;;0.20;0.10;;;9.40;99.90;;;;;;4956007;28;20190;-67
2021/10/08 06:40:42;;;;;;;0.20;0.20;;;9.40;99.90;;;;;;4957545;28;20597;-67
2021/10/08 06:43:08;;;;;;;0.20;0.20;;;9.50;99.90;;;;;;4955791;28;20428;-68
2021/10/08 06:45:34;;;;;;;0.20;0.20;;;9.50;99.90;;;;;;4955642;28;20691;-68
2021/10/08 06:48:00;;;;;;;0.20;0.20;;;9.60;99.90;;;;;;4955428;28;20179;-68
2021/10/08 06:50:26;;;;;;;0.20;0.20;;;9.60;99.90;;;;;;4955547;28;20501;-68
2021/10/08 06:52:52;;;;;;;0.20;0.20;;;9.70;99.90;;;;;;4955130;28;20434;-67
2021/10/08 06:55:17;;;;;;;0.77;0.77;;;9.70;99.90;;;;;;4955564;28;20266;-68
2021/10/08 06:57:43;;;;;;;0.20;0.10;;;9.90;99.90;;;;;;4955562;28;20527;-68
2021/10/08 07:00:09;;;;;;;0.30;0.20;;;10.00;99.90;;;;;;4955240;28;20277;-68
2021/10/08 07:02:52;;;;;;;0.20;0.20;;;10.10;99.90;;;;;;4955605;28;20246;-65
2021/10/08 07:05:20;;;;;;;0.30;0.20;;;10.30;99.90;;;;;;4955117;28;20186;-65
2021/10/08 07:07:46;;;;;;;0.30;0.20;;;10.40;99.90;;;;;;4955201;28;20262;-65
2021/10/08 07:10:12;;;;;;;0.23;0.20;;;10.40;99.90;;;;;;4955620;28;20254;-64
2021/10/08 07:12:40;;;;;;;1.05;1.05;;;10.40;99.90;;;;;;4955714;28;20447;-65
2021/10/08 07:15:15;;;;;;;0.20;0.10;;;10.60;99.90;;;;;;4955271;28;20525;-65
2021/10/08 07:17:43;;;;;;;0.30;0.20;;;10.70;99.90;;;;;;4955268;28;20184;-66
2021/10/08 07:20:09;;;;;;;0.30;0.20;;;10.70;99.90;;;;;;4954924;28;20215;-66
2021/10/08 07:22:36;;;;;;;0.30;0.20;;;10.90;99.90;;;;;;4954379;28;20184;-65
2021/10/08 07:25:02;;;;;;;0.30;0.20;;;11.00;99.90;;;;;;4954839;28;20187;-65
2021/10/08 07:27:31;;;;;;;0.30;0.20;;;11.10;99.90;;;;;;4958640;28;20199;-65
2021/10/08 07:29:57;;;;;;;0.85;0.68;;;11.10;99.90;;;;;;4958458;28;20303;-65
2021/10/08 07:32:22;;;;;;;0.30;0.20;;;11.10;99.90;;;;;;4957722;28;20188;-65
2021/10/08 07:34:48;;;;;;;1.53;1.50;;;11.30;99.90;;;;;;4958159;28;20187;-66
2021/10/08 07:37:13;;;;;;;0.30;0.30;;;11.20;99.90;;;;;;4958725;28;20497;-66
2021/10/08 07:39:40;;;;;;;0.30;0.20;;;11.30;99.90;;;;;;4958292;28;20840;-66
2021/10/08 07:42:06;;;;;;;2.05;1.95;;;11.10;99.90;;;;;;4958342;28;20191;-66
2021/10/08 07:44:31;;;;;;;1.60;1.50;;;11.10;99.90;;;;;;4958845;28;20184;-65
2021/10/08 07:46:57;;;;;;;0.43;0.40;;;11.00;99.90;;;;;;4957896;28;20270;-65
2021/10/08 07:49:22;;;;;;;0.87;0.53;;;11.00;99.90;;;;;;4958032;28;20266;-66
2021/10/08 07:51:48;;;;;;;4.33;3.50;;;11.00;99.90;;;;;;4958566;29;20234;-66
2021/10/08 07:54:14;;;;;;;0.30;0.20;;;10.90;99.90;;;;;;4958496;28;20192;-66
2021/10/08 07:56:39;;;;;;;3.70;3.60;;;11.10;99.90;;;;;;4958053;28;20239;-66
2021/10/08 07:59:06;;;;;;;0.53;0.53;;;11.20;99.90;;;;;;4957684;29;20298;-66
2021/10/08 08:01:32;;;;;;;0.30;0.20;;;11.20;99.90;;;;;;4957078;29;20176;-66
2021/10/08 08:03:57;;;;;;;0.67;0.67;;;11.30;99.90;;;;;;4958203;29;20648;-66
2021/10/08 08:06:25;;;;;;;0.30;0.27;;;11.50;99.90;;;;;;4958067;29;20427;-68
2021/10/08 08:08:51;;;;;;;0.30;0.20;;;11.60;99.90;;;;;;4956748;29;20184;-68
2021/10/08 08:11:17;;;;;;;0.40;0.30;;;11.60;99.90;;;;;;4954639;29;20190;-68
2021/10/08 08:13:43;;;;;;;1.80;1.57;;;11.90;99.90;;;;;;4958689;28;20605;-67
2021/10/08 08:16:08;;;;;;;0.95;0.95;;;12.00;99.90;;;;;;4957664;29;20199;-66
2021/10/08 08:18:35;;;;;;;0.30;0.17;;;11.90;99.90;;;;;;4957327;29;20285;-67
2021/10/08 08:21:01;;;;;;;2.47;2.05;;;12.00;99.90;;;;;;4957372;28;20208;-66
2021/10/08 08:23:27;;;;;;;0.30;0.20;;;11.80;99.90;;;;;;4957239;28;20872;-66
2021/10/08 08:25:54;;;;;;;0.93;0.93;;;11.90;99.90;;;;;;4957220;29;20271;-66
2021/10/08 08:28:20;;;;;;;0.60;0.60;;;11.80;99.90;;;;;;4956970;28;20239;-66
2021/10/08 08:30:46;;;;;;;0.40;0.30;;;11.90;99.90;;;;;;4957342;29;20187;-66
2021/10/08 08:33:12;;;;;;;1.40;1.30;;;11.90;99.90;;;;;;4957422;28;20529;-66
2021/10/08 08:35:38;;;;;;;1.35;1.25;;;12.10;99.90;;;;;;4940126;28;20184;-68
2021/10/08 08:38:04;;;;;;;0.30;0.20;;;12.20;99.90;;;;;;4957308;28;20245;-69
2021/10/08 08:40:30;;;;;;;0.30;0.20;;;12.20;99.90;;;;;;4954600;29;20575;-68
2021/10/08 08:42:59;;;;;;;0.30;0.20;;;12.40;99.90;;;;;;4956393;28;20316;-68
2021/10/08 08:45:26;;;;;;;0.30;0.20;;;12.30;99.90;;;;;;4956315;29;20176;-68
2021/10/08 08:48:04;;;;;;;1.48;0.68;;;12.50;99.90;;;;;;4957514;28;20276;-68
2021/10/08 08:50:32;;;;;;;0.30;0.20;;;12.50;99.90;;;;;;4954872;29;20180;-68
2021/10/08 08:52:57;;;;;;;0.30;0.20;;;12.60;99.90;;;;;;4957374;28;20708;-68
2021/10/08 08:55:23;;;;;;;0.30;0.20;;;12.70;99.90;;;;;;4957586;28;20231;-68
2021/10/08 08:57:49;;;;;;;1.10;0.95;;;12.90;99.90;;;;;;4957629;28;20188;-68
2021/10/08 09:00:17;;;;;;;1.03;0.93;;;12.90;99.90;;;;;;4955904;29;20238;-68
2021/10/08 09:02:44;;;;;;;0.57;0.57;;;13.00;58.70;;;;;;4956844;29;20424;-68
2021/10/08 09:05:18;;;;;;;2.28;2.08;;;13.00;54.00;;;;;;4956720;28;20633;-68
2021/10/08 09:07:44;;;;;;;0.30;0.20;;;12.90;99.90;;;;;;4955392;28;20431;-68
2021/10/08 09:10:21;;;;;;;0.40;0.37;;;13.00;99.90;;;;;;4955319;28;20180;-68
2021/10/08 09:12:48;;;;;;;0.40;0.40;;;13.20;99.90;;;;;;4955146;29;20438;-65
2021/10/08 09:15:15;;;;;;;0.30;0.20;;;13.00;99.90;;;;;;4956797;29;20278;-69
2021/10/08 09:17:42;;;;;;;0.30;0.20;;;13.20;99.90;;;;;;4956520;29;20185;-68
2021/10/08 09:20:18;;;;;;;2.35;1.77;;;13.40;99.90;;;;;;4956474;28;20608;-65
2021/10/08 09:22:46;;;;;;;0.75;0.73;;;13.70;94.60;;;;;;4956764;28;20250;-65
2021/10/08 09:25:15;;;;;;;0.30;0.20;;;13.70;48.00;;;;;;4956813;28;20199;-65
2021/10/08 09:27:44;;;;;;;3.30;3.05;;;13.70;4.50;;;;;;4956647;28;20192;-68
2021/10/08 09:30:11;;;;;;;0.30;0.20;;;13.60;5.50;;;;;;4956440;28;20184;-68
2021/10/08 09:32:45;;;;;;;0.57;0.57;;;13.70;31.70;;;;;;4956886;29;20188;-68
2021/10/08 09:35:17;;;;;;;0.30;0.20;;;13.90;19.60;;;;;;4956638;29;20551;-66
2021/10/08 09:37:45;;;;;;;1.52;0.82;;;13.90;1.00;;;;;;4956692;28;20180;-65
2021/10/08 09:40:24;;;;;;;1.42;1.20;;;14.00;1.00;;;;;;4956232;28;20298;-69
2021/10/08 09:42:59;;;;;;;1.02;0.75;;;14.20;1.00;;;;;;4956446;28;20168;-66
2021/10/08 09:45:38;;;;;;;0.40;0.30;;;14.30;1.00;;;;;;4956563;28;20226;-69
2021/10/08 09:48:05;;;;;;;0.40;0.20;;;14.40;1.00;;;;;;4955732;28;20195;-69
2021/10/08 09:50:31;;;;;;;0.60;0.60;;;14.50;1.00;;;;;;4956255;28;20255;-66
2021/10/08 09:53:11;;;;;;;0.40;0.20;;;14.60;1.00;;;;;;4956277;28;20212;-65
2021/10/08 09:55:39;;;;;;;0.40;0.20;;;14.70;1.00;;;;;;4956368;28;20502;-69
2021/10/08 09:58:05;;;;;;;0.40;0.20;;;14.80;1.00;;;;;;4955844;28;20180;-69
2021/10/08 10:00:57;;;;;;;5.45;1.48;;;14.80;1.00;;;;;;4956093;28;20215;-69
2021/10/08 10:03:23;;;;;;;0.63;0.57;;;14.90;1.00;;;;;;4956167;28;20644;-67
2021/10/08 10:05:49;;;;;;;0.40;0.20;;;15.10;1.00;;;;;;4956460;29;20231;-66
2021/10/08 10:08:15;;;;;;;0.40;0.20;;;15.10;1.00;;;;;;4955855;29;20200;-67
2021/10/08 10:10:42;;;;;;;0.40;0.40;;;15.10;1.00;;;;;;4956445;29;20188;-67
2021/10/08 10:13:10;;;;;;;1.80;1.25;;;15.10;99.90;;;;;;4956083;28;20530;-68
2021/10/08 10:15:41;;;;;;;0.40;0.20;;;15.00;1.00;;;;;;4956490;28;20200;-68
2021/10/08 10:18:12;;;;;;;0.60;0.50;;;15.00;1.00;;;;;;4955649;28;20184;-69
2021/10/08 10:20:43;;;;;;;1.15;0.75;;;15.30;1.00;;;;;;4954691;28;20251;-69
2021/10/08 10:23:09;;;;;;;1.02;0.77;;;15.40;1.00;;;;;;4956021;29;20176;-68
2021/10/08 10:25:35;;;;;;;0.40;0.30;;;15.40;1.00;;;;;;4955114;29;20231;-67
2021/10/08 10:28:03;;;;;;;0.60;0.20;;;15.50;1.00;;;;;;4955241;29;20195;-66
2021/10/08 10:30:28;;;;;;;0.70;0.60;;;15.60;99.90;;;;;;4955583;28;20520;-66
2021/10/08 10:32:55;;;;;;;0.40;0.17;;;15.70;99.90;;;;;;4955612;28;20278;-70
2021/10/08 10:35:40;;;;;;;0.50;0.40;;;15.80;99.90;;;;;;4955453;28;20267;-70
2021/10/08 10:38:22;;;;;;;2.55;1.33;;;15.80;99.90;;;;;;4955178;28;20633;-70
2021/10/08 10:41:09;;;;;;;0.40;0.20;;;15.50;99.90;;;;;;4955333;28;20227;-70
2021/10/08 10:43:40;;;;;;;0.40;0.10;;;15.40;99.90;;;;;;4955544;28;20676;-67
2021/10/08 10:47:10;;;;;;;0.40;0.20;;;15.90;99.90;;;;;;4955894;28;20188;-68
2021/10/08 10:52:11;;;;;;;0.40;0.20;;;15.80;99.90;;;;;;4955869;28;20188;-68
2021/10/08 10:54:52;;;;;;;0.50;0.30;;;16.00;99.90;;;;;;4955330;28;20192;-67
2021/10/08 10:57:30;;;;;;;0.40;0.20;;;16.10;99.90;;;;;;4954453;29;20231;-69
2021/10/08 11:00:21;;;;;;;0.40;0.20;;;16.40;99.90;;;;;;4955882;28;20756;-66
2021/10/08 11:02:47;;;;;;;0.60;0.43;;;16.40;99.90;;;;;;4959731;28;20187;-69
2021/10/08 11:05:22;;;;;;;0.40;0.15;;;16.40;55.40;;;;;;4959938;28;20176;-65
2021/10/08 11:08:04;;;;;;;0.40;0.10;;;16.30;99.90;;;;;;4959573;29;20185;-65
2021/10/08 11:10:31;;;;;;;0.40;0.20;;;16.40;99.90;;;;;;4959860;28;20199;-65
2021/10/08 11:13:27;;;;;;;1.50;1.40;;;16.30;21.10;;;;;;4959917;29;20644;-68
2021/10/08 11:16:03;;;;;;;0.50;0.30;;;16.40;1.00;;;;;;4956244;28;20461;-66
2021/10/08 11:18:53;;;;;;;0.40;0.20;;;16.40;1.00;;;;;;4958582;29;20546;-68
2021/10/08 11:21:29;;;;;;;0.40;0.20;;;16.60;1.00;;;;;;4959329;29;20436;-66
2021/10/08 11:24:13;;;;;;;0.43;0.27;;;16.60;1.00;;;;;;4958990;28;20183;-67
2021/10/08 11:26:39;;;;;;;0.40;0.20;;;16.70;1.00;;;;;;4958930;29;20431;-68
2021/10/08 11:29:05;;;;;;;0.40;0.20;;;16.80;99.90;;;;;;4957550;29;20286;-68
2021/10/08 11:31:31;;;;;;;3.90;1.27;;;17.00;99.90;;;;;;4958726;29;20267;-65
2021/10/08 11:33:56;;;;;;;0.40;0.20;;;17.20;1.00;;;;;;4958781;29;20185;-65
2021/10/08 11:36:31;;;;;;;0.50;0.40;;;17.00;99.90;;;;;;4958744;28;20184;-69
2021/10/08 11:39:27;;;;;;;0.60;0.60;;;16.80;99.90;;;;;;4957131;29;20184;-69
2021/10/08 11:42:13;;;;;;;0.40;0.20;;;16.80;99.90;;;;;;4954284;28;20184;-69
2021/10/08 11:45:08;;;;;;;1.47;0.77;;;16.90;1.00;;;;;;4958594;29;20446;-69
2021/10/08 11:47:47;;;;;;;0.40;0.20;;;16.90;1.00;;;;;;4958428;29;20427;-68
2021/10/08 11:52:42;;;;;;;0.40;0.20;;;17.00;1.00;;;;;;4958045;28;20211;-66
2021/10/08 11:55:08;;;;;;;1.37;1.37;;;17.30;1.00;;;;;;4958596;29;20181;-66
2021/10/08 11:57:53;;;;;;;0.87;0.87;;;17.30;1.00;;;;;;4958336;28;20442;-66
2021/10/08 12:00:23;;;;;;;0.40;0.30;;;17.30;1.00;;;;;;4958015;28;20473;-69
2021/10/08 12:03:06;;;;;;;1.60;1.40;;;17.50;1.00;;;;;;4957293;29;20762;-68
2021/10/08 12:06:01;;;;;;;0.40;0.20;;;17.50;1.00;;;;;;4957963;29;20431;-69
2021/10/08 12:08:39;;;;;;;0.50;0.50;;;17.50;1.00;;;;;;4956994;28;20455;-65
2021/10/08 12:11:07;;;;;;;0.40;0.20;;;17.70;34.60;;;;;;4957648;28;20510;-66
2021/10/08 12:13:37;;;;;;;0.40;0.20;;;17.90;1.00;;;;;;4957619;28;20822;-66
2021/10/08 12:16:03;;;;;;;0.40;0.20;;;17.90;99.90;;;;;;4957905;28;20428;-66
2021/10/08 12:18:28;;;;;;;0.40;0.20;;;17.70;1.00;;;;;;4957581;29;20432;-66
2021/10/08 12:21:21;;;;;;;0.40;0.20;;;17.50;1.00;;;;;;4957716;29;20529;-66
2021/10/08 12:24:02;;;;;;;0.40;0.20;;;17.70;1.00;;;;;;4958055;29;20195;-66
2021/10/08 12:26:30;;;;;;;1.23;0.83;;;18.00;1.00;;;;;;4957762;28;20459;-68
2021/10/08 12:28:57;;;;;;;0.50;0.37;;;18.10;1.00;;;;;;4957609;29;20455;-68
2021/10/08 12:31:46;;;;;;;0.40;0.20;;;18.10;99.90;;;;;;4957353;28;20924;-65
2021/10/08 12:34:12;;;;;;;0.40;0.20;;;18.10;1.00;;;;;;4958041;28;20965;-68
2021/10/08 12:36:37;;;;;;;0.40;0.20;;;18.10;1.00;;;;;;4940709;29;20436;-69
2021/10/08 12:39:07;;;;;;;0.40;0.20;;;18.20;99.90;;;;;;4957436;28;20188;-68
2021/10/08 12:42:01;;;;;;;0.50;0.20;;;18.00;99.90;;;;;;4957490;29;20271;-65
2021/10/08 12:44:34;;;;;;;0.40;0.23;;;18.00;1.00;;;;;;4957725;28;20434;-65
2021/10/08 12:47:14;;;;;;;0.40;0.17;;;17.90;99.90;;;;;;4957788;29;20520;-66
2021/10/08 12:49:53;;;;;;;1.60;1.43;;;18.20;1.00;;;;;;4957149;28;20436;-68
2021/10/08 12:52:39;;;;;;;1.23;1.10;;;18.30;1.00;;;;;;4957159;28;20424;-66
2021/10/08 12:55:13;;;;;;;0.40;0.20;;;18.10;99.90;;;;;;4957099;28;20917;-67
2021/10/08 12:57:59;;;;;;;0.40;0.10;;;18.50;1.00;;;;;;4957454;29;20423;-66
2021/10/08 13:00:40;;;;;;;0.40;0.20;;;18.80;1.00;;;;;;4956995;28;20482;-66
2021/10/08 13:03:07;;;;;;;0.60;0.60;;;19.40;30.90;;;;;;4956837;28;20912;-66
2021/10/08 13:05:41;;;;;;;2.73;1.40;;;19.70;99.90;;;;;;4956847;28;20428;-66
2021/10/08 13:08:15;;;;;;;1.13;1.03;;;19.00;99.90;;;;;;4956619;29;20424;-66